createdAt,value
2023-03-23T16:03:13.785Z,97.30
2023-03-23T16:13:12.715Z,97.30
2023-03-23T16:23:11.914Z,97.20
2023-03-23T16:33:10.657Z,97.00
2023-03-23T16:43:09.880Z,97.20
2023-03-23T16:53:08.685Z,95.60
2023-03-23T17:03:07.893Z,93.60
2023-03-23T17:13:06.903Z,92.80
2023-03-23T17:23:05.712Z,92.00
2023-03-23T17:33:04.657Z,91.70
2023-03-23T17:43:03.642Z,91.00
2023-03-23T17:53:03.052Z,90.50
2023-03-23T18:03:01.635Z,90.40
2023-03-23T18:13:00.671Z,90.30
2023-03-23T18:22:59.904Z,90.30
2023-03-23T18:32:58.792Z,90.30
2023-03-23T18:42:58.151Z,90.30
2023-03-23T18:52:56.840Z,90.30
2023-03-23T19:02:55.955Z,90.30
2023-03-23T19:12:55.034Z,90.50
2023-03-23T19:22:56.838Z,90.50
2023-03-23T19:32:56.207Z,90.50
2023-03-23T19:42:57.400Z,90.60
2023-03-23T19:52:58.663Z,90.60
2023-03-23T20:02:58.216Z,90.70
2023-03-23T20:12:56.703Z,90.70
2023-03-23T20:22:57.886Z,90.80
2023-03-23T20:32:59.264Z,90.80
2023-03-23T20:43:00.634Z,90.80
2023-03-23T20:53:00.053Z,90.70
2023-03-23T21:02:58.934Z,90.80
2023-03-23T21:12:58.130Z,90.70
2023-03-23T21:22:56.867Z,90.70
2023-03-23T21:32:56.021Z,90.70
2023-03-23T21:42:54.839Z,90.90
2023-03-23T21:52:53.709Z,91.40
2023-03-23T22:02:53.302Z,91.60
2023-03-23T22:12:53.745Z,91.90
2023-03-23T22:22:53.057Z,92.40
2023-03-23T22:32:52.359Z,93.10
2023-03-23T22:42:50.912Z,93.90
2023-03-23T22:52:49.946Z,94.60
2023-03-23T23:02:49.063Z,95.50
2023-03-23T23:12:48.872Z,96.00
2023-03-23T23:22:47.814Z,96.60
2023-03-23T23:32:47.188Z,96.90
2023-03-23T23:42:45.978Z,97.40
2023-03-23T23:52:44.899Z,97.60
